Time;durP1;ratioP1;P1;durP2;ratioP2;P2;SDS_P1;SDS_P2;PMS_P1;PMS_P2;Temp;Humidity;BMP_temperature;BMP_pressure;BME280_temperature;BME280_humidity;BME280_pressure;Samples;Min_cycle;Max_cycle;Signal;HPM_P1;HPM_P2
2023/05/10 00:02:09;;;;;;;9.68;5.68;;;;;;;7.45;100.00;100433.84;5037789;28;20091;-76
2023/05/10 00:04:35;;;;;;;11.50;5.45;;;;;;;7.40;100.00;100425.94;5054762;28;20017;-77
2023/05/10 00:07:01;;;;;;;9.13;5.50;;;;;;;7.43;100.00;100425.78;5055703;28;20054;-76
2023/05/10 00:09:28;;;;;;;10.35;5.55;;;;;;;7.36;100.00;100417.56;5054619;28;20025;-76
2023/05/10 00:11:58;;;;;;;10.88;5.78;;;;;;;7.22;100.00;100403.13;5054521;28;20025;-75
2023/05/10 00:14:24;;;;;;;8.45;5.65;;;;;;;7.17;100.00;100400.91;5054287;28;20119;-77
2023/05/10 00:16:50;;;;;;;8.27;6.30;;;;;;;7.26;100.00;100424.47;5054306;28;20028;-76
2023/05/10 00:19:15;;;;;;;11.00;5.88;;;;;;;7.22;100.00;100420.97;5055632;28;20032;-76
2023/05/10 00:21:42;;;;;;;10.30;6.18;;;;;;;7.13;100.00;100420.91;5054119;28;20024;-76
2023/05/10 00:24:08;;;;;;;11.85;5.70;;;;;;;7.10;100.00;100416.97;5054158;28;20021;-77
2023/05/10 00:26:33;;;;;;;14.40;5.68;;;;;;;7.06;100.00;100416.31;5053921;28;20393;-76
2023/05/10 00:29:02;;;;;;;8.45;5.45;;;;;;;6.99;100.00;100407.28;5053859;28;20496;-78
2023/05/10 00:31:27;;;;;;;9.85;6.10;;;;;;;6.98;100.00;100403.63;5054148;28;20079;-78
2023/05/10 00:33:53;;;;;;;13.55;7.53;;;;;;;6.96;100.00;100399.69;5036227;28;20033;-77
2023/05/10 00:36:18;;;;;;;13.75;6.78;;;;;;;7.02;100.00;100421.38;5054286;28;20079;-77
2023/05/10 00:38:44;;;;;;;11.88;6.53;;;;;;;6.93;100.00;100409.16;5053878;28;20087;-76
2023/05/10 00:41:11;;;;;;;12.80;7.22;;;;;;;6.93;100.00;100415.59;5054250;28;20406;-77
2023/05/10 00:43:37;;;;;;;11.48;6.35;;;;;;;6.90;100.00;100410.06;5055562;28;20021;-78
2023/05/10 00:46:04;;;;;;;9.85;6.75;;;;;;;6.88;100.00;100410.53;5058740;28;20017;-77
2023/05/10 00:48:36;;;;;;;14.48;7.00;;;;;;;6.80;100.00;100403.56;5057887;28;20025;-78
2023/05/10 00:51:03;;;;;;;13.02;6.90;;;;;;;6.78;100.00;100402.44;5052817;28;20145;-77
2023/05/10 00:53:31;;;;;;;14.48;6.13;;;;;;;6.75;100.00;100409.84;5052405;28;20167;-76
2023/05/10 00:55:57;;;;;;;16.33;6.32;;;;;;;6.64;100.00;100400.91;5050330;28;20052;-77
2023/05/10 00:58:28;;;;;;;9.95;6.97;;;;;;;6.68;100.00;100409.31;5052673;28;20025;-78
2023/05/10 01:00:56;;;;;;;18.10;8.32;;;;;;;6.63;100.00;100410.72;5053464;28;20142;-77
2023/05/10 01:03:23;;;;;;;13.43;6.97;;;;;;;6.58;100.00;100391.44;5052581;28;20020;-76
2023/05/10 01:05:50;;;;;;;11.80;6.55;;;;;;;6.51;100.00;100389.66;5053646;28;20025;-76
2023/05/10 01:08:17;;;;;;;12.38;6.88;;;;;;;6.57;100.00;100402.00;5053589;28;20052;-75
2023/05/10 01:10:49;;;;;;;13.55;7.25;;;;;;;6.55;100.00;100395.97;5035601;28;20032;-78
2023/05/10 01:13:21;;;;;;;10.23;6.15;;;;;;;6.48;100.00;100395.47;5053917;28;20126;-75
2023/05/10 01:15:48;;;;;;;9.27;6.53;;;;;;;6.45;100.00;100394.34;5053456;28;20035;-76
2023/05/10 01:18:33;;;;;;;15.05;6.70;;;;;;;6.40;100.00;100394.13;5036127;28;20021;-76
2023/05/10 01:21:19;;;;;;;13.50;7.47;;;;;;;6.37;100.00;100400.75;5053158;28;20021;-76
2023/05/10 01:24:11;;;;;;;12.27;7.40;;;;;;;6.34;100.00;100387.50;5054170;28;20468;-77
2023/05/10 01:26:37;;;;;;;;;;;;;;;6.28;100.00;100394.97;5054724;28;20024;-76
2023/05/10 01:29:06;;;;;;;12.23;7.18;;;;;;;6.18;100.00;100385.59;5054172;28;20377;-76
2023/05/10 01:31:56;;;;;;;11.95;7.50;;;;;;;6.17;100.00;100386.84;5052834;28;20037;-76
2023/05/10 01:34:58;;;;;;;10.95;7.13;;;;;;;6.17;100.00;100393.31;5054688;28;20025;-76
2023/05/10 01:37:37;;;;;;;14.73;7.95;;;;;;;6.16;100.00;100396.59;5014521;28;20454;-75
2023/05/10 01:40:10;;;;;;;13.15;7.78;;;;;;;6.11;100.00;100389.47;5059771;28;20047;-76
2023/05/10 01:43:08;;;;;;;16.00;6.90;;;;;;;6.13;100.00;100398.34;5061732;28;20304;-75
2023/05/10 01:46:01;;;;;;;19.77;8.73;;;;;;;6.11;100.00;100402.88;5033633;28;20063;-77
2023/05/10 01:48:51;;;;;;;11.05;7.50;;;;;;;6.08;100.00;100403.81;5053048;28;20107;-76
2023/05/10 01:51:21;;;;;;;14.63;7.60;;;;;;;5.97;100.00;100390.00;5052842;28;20378;-76
2023/05/10 01:53:49;;;;;;;15.68;7.60;;;;;;;5.96;100.00;100396.91;5052736;28;20025;-76
2023/05/10 01:56:16;;;;;;;13.38;7.53;;;;;;;5.99;100.00;100398.06;5035887;28;20079;-76
2023/05/10 01:58:45;;;;;;;13.85;7.03;;;;;;;5.94;100.00;100396.59;5052607;28;20045;-76
2023/05/10 02:01:12;;;;;;;11.45;6.72;;;;;;;5.95;100.00;100395.31;5051992;28;20053;-75
2023/05/10 02:03:40;;;;;;;13.68;7.32;;;;;;;5.95;100.00;100391.69;5052533;28;20047;-76
2023/05/10 02:06:07;;;;;;;12.82;7.75;;;;;;;5.93;100.00;100394.22;5035662;28;20029;-77
2023/05/10 02:08:36;;;;;;;16.05;8.30;;;;;;;5.88;100.00;100394.78;5035594;28;20053;-76
2023/05/10 02:11:03;;;;;;;15.57;7.72;;;;;;;5.87;100.00;100391.16;5019175;28;20060;-76
2023/05/10 02:13:31;;;;;;;16.15;9.32;;;;;;;5.85;100.00;100379.47;5052211;28;20037;-75
2023/05/10 02:15:57;;;;;;;11.52;7.50;;;;;;;5.82;100.00;100389.69;5035817;28;20041;-76
2023/05/10 02:18:33;;;;;;;12.13;8.27;;;;;;;5.72;100.00;100381.56;5035771;28;20082;-76
2023/05/10 02:21:02;;;;;;;14.30;7.50;;;;;;;5.73;100.00;100386.78;5052109;28;20462;-76
2023/05/10 02:23:29;;;;;;;11.45;7.07;;;;;;;5.71;100.00;100389.28;5053240;28;20027;-76
2023/05/10 02:25:56;;;;;;;12.38;8.50;;;;;;;5.69;100.00;100379.66;5035570;28;20044;-76
2023/05/10 02:28:23;;;;;;;12.52;8.30;;;;;;;5.67;100.00;100377.25;5052282;28;20032;-76
2023/05/10 02:30:51;;;;;;;17.20;8.13;;;;;;;5.66;100.00;100383.38;5035675;28;20033;-77
2023/05/10 02:33:17;;;;;;;16.23;8.27;;;;;;;5.67;100.00;100380.09;5051811;28;20494;-76
2023/05/10 02:35:44;;;;;;;11.85;7.50;;;;;;;5.67;100.00;100377.25;5052811;28;20055;-76
2023/05/10 02:38:14;;;;;;;14.88;7.72;;;;;;;5.69;100.00;100383.28;5057370;28;20036;-77
2023/05/10 02:40:42;;;;;;;11.20;7.88;;;;;;;5.65;100.00;100378.97;5056693;28;20029;-75
2023/05/10 02:43:12;;;;;;;11.95;7.22;;;;;;;5.66;100.00;100381.34;5035743;28;20400;-75
2023/05/10 02:45:38;;;;;;;15.15;7.78;;;;;;;5.68;100.00;100378.84;5035273;28;20463;-78
2023/05/10 02:48:09;;;;;;;10.35;6.80;;;;;;;5.69;100.00;100379.66;5051766;28;20037;-76
2023/05/10 02:50:36;;;;;;;14.25;7.57;;;;;;;5.66;100.00;100375.69;5052850;28;20491;-75
2023/05/10 02:53:22;;;;;;;13.07;6.95;;;;;;;5.69;100.00;100374.78;5051683;28;20546;-77
2023/05/10 02:56:06;;;;;;;13.10;7.15;;;;;;;5.55;100.00;100366.75;5051801;28;20033;-76
2023/05/10 02:58:33;;;;;;;13.68;7.78;;;;;;;5.64;100.00;100368.91;5051633;28;20035;-77
2023/05/10 03:01:00;;;;;;;12.18;7.35;;;;;;;5.59;100.00;100366.63;5052762;28;20099;-77
2023/05/10 03:03:26;;;;;;;13.27;7.18;;;;;;;5.66;100.00;100381.34;5051490;28;20382;-78
2023/05/10 03:05:55;;;;;;;14.40;7.22;;;;;;;5.67;100.00;100382.94;5052643;28;20048;-76
2023/05/10 03:08:23;;;;;;;12.02;6.40;;;;;;;5.67;100.00;100384.97;5051580;28;20462;-77
2023/05/10 03:11:28;;;;;;;16.52;7.93;;;;;;;5.69;100.00;100383.28;5018421;28;20036;-77
2023/05/10 03:14:23;;;;;;;13.18;7.10;;;;;;;5.72;100.00;100382.34;5052945;28;20029;-77
2023/05/10 03:17:19;;;;;;;12.80;7.38;;;;;;;5.77;100.00;100389.47;5052707;28;20466;-76
2023/05/10 03:20:02;;;;;;;10.95;6.80;;;;;;;5.77;100.00;100384.59;5051319;28;20037;-77
2023/05/10 03:22:38;;;;;;;18.33;7.50;;;;;;;5.76;100.00;100377.34;5052770;28;20367;-76
2023/05/10 03:25:06;;;;;;;16.67;7.15;;;;;;;5.80;100.00;100382.88;5052655;28;20373;-76
2023/05/10 03:27:34;;;;;;;14.23;7.18;;;;;;;5.81;100.00;100382.44;5052523;28;20029;-76
2023/05/10 03:30:02;;;;;;;15.38;8.60;;;;;;;5.90;100.00;100386.59;5034657;28;20037;-75
2023/05/10 03:32:31;;;;;;;11.57;7.10;;;;;;;5.92;100.00;100386.94;5034849;28;20086;-75
2023/05/10 03:34:58;;;;;;;15.35;7.35;;;;;;;5.93;100.00;100385.69;5035048;28;20091;-75
2023/05/10 03:37:24;;;;;;;12.95;6.88;;;;;;;5.94;100.00;100378.78;5051597;28;20025;-75
2023/05/10 03:39:50;;;;;;;14.75;7.80;;;;;;;5.97;100.00;100381.47;5052896;28;20033;-76
2023/05/10 03:42:17;;;;;;;13.88;7.63;;;;;;;6.06;100.00;100383.59;5051637;28;20059;-74
2023/05/10 03:44:43;;;;;;;11.45;7.60;;;;;;;6.09;100.00;100371.34;5051046;28;20025;-76
2023/05/10 03:47:09;;;;;;;14.35;8.02;;;;;;;6.18;100.00;100377.09;5053970;28;20035;-75
2023/05/10 03:49:35;;;;;;;13.90;7.07;;;;;;;6.22;100.00;100370.03;5054985;28;20036;-73
2023/05/10 03:52:02;;;;;;;13.95;7.63;;;;;;;6.29;100.00;100379.53;5056433;28;20029;-76
2023/05/10 03:54:30;;;;;;;13.40;7.53;;;;;;;6.31;100.00;100375.00;5055993;28;20029;-75
2023/05/10 03:56:56;;;;;;;14.05;8.02;;;;;;;6.35;100.00;100378.50;5056056;28;20033;-78
2023/05/10 03:59:23;;;;;;;12.55;7.43;;;;;;;6.38;100.00;100379.63;5051707;28;20036;-76
2023/05/10 04:01:49;;;;;;;11.25;6.85;;;;;;;6.44;100.00;100380.59;5055401;28;20049;-76
2023/05/10 04:04:14;;;;;;;14.45;7.13;;;;;;;6.45;100.00;100373.66;5055992;28;20032;-76
2023/05/10 04:06:39;;;;;;;10.85;7.05;;;;;;;6.47;100.00;100374.81;5054653;28;20095;-74
2023/05/10 04:09:06;;;;;;;12.82;7.38;;;;;;;6.52;100.00;100379.88;5055829;28;20462;-74
2023/05/10 04:11:33;;;;;;;18.52;7.72;;;;;;;6.62;100.00;100375.84;5054305;28;20216;-77
2023/05/10 04:14:00;;;;;;;10.48;6.97;;;;;;;6.70;100.00;100376.34;5053380;28;20363;-75
2023/05/10 04:16:26;;;;;;;14.38;7.47;;;;;;;6.78;100.00;100385.41;5053708;28;20036;-76
2023/05/10 04:18:52;;;;;;;13.07;7.00;;;;;;;6.85;100.00;100374.56;5055184;28;20055;-77
2023/05/10 04:21:19;;;;;;;10.55;7.55;;;;;;;6.90;100.00;100376.78;5054789;28;20454;-77
2023/05/10 04:23:46;;;;;;;12.48;7.05;;;;;;;6.96;100.00;100376.97;5053980;28;20418;-74
2023/05/10 04:26:13;;;;;;;12.18;6.57;;;;;;;7.01;100.00;100376.38;5054173;28;20474;-74
2023/05/10 04:28:39;;;;;;;13.07;7.63;;;;;;;7.06;100.00;100372.91;5054973;28;20039;-76
2023/05/10 04:31:08;;;;;;;12.55;7.13;;;;;;;7.13;100.00;100371.84;5060510;28;20035;-77
2023/05/10 04:33:35;;;;;;;15.30;7.03;;;;;;;7.21;100.00;100373.94;5038434;28;20463;-76
2023/05/10 04:36:09;;;;;;;11.77;7.45;;;;;;;7.26;100.00;100375.34;5021503;28;20041;-77
2023/05/10 04:38:34;;;;;;;13.85;7.35;;;;;;;7.34;100.00;100368.13;5055443;28;20043;-78
2023/05/10 04:41:10;;;;;;;13.15;7.38;;;;;;;7.44;100.00;100375.41;5053960;28;20028;-77
2023/05/10 04:43:38;;;;;;;12.20;7.15;;;;;;;7.54;100.00;100377.00;5053844;28;20100;-77
2023/05/10 04:46:05;;;;;;;13.52;7.30;;;;;;;7.61;100.00;100381.63;5020997;28;20385;-78
2023/05/10 04:48:31;;;;;;;12.73;7.35;;;;;;;7.66;100.00;100378.94;5033807;28;20513;-81
2023/05/10 04:50:58;;;;;;;14.35;7.57;;;;;;;7.74;100.00;100387.97;5035779;28;20460;-78
2023/05/10 04:53:24;;;;;;;13.18;7.35;;;;;;;7.69;100.00;100380.84;5033846;28;20463;-78
2023/05/10 04:55:50;;;;;;;13.80;7.22;;;;;;;7.77;100.00;100375.63;5035627;28;20104;-76
2023/05/10 04:58:16;;;;;;;10.88;7.32;;;;;;;7.82;100.00;100369.31;5034855;28;20083;-80
2023/05/10 05:00:44;;;;;;;14.43;7.55;;;;;;;7.91;100.00;100377.88;5035409;28;20045;-79
2023/05/10 05:03:11;;;;;;;11.90;6.05;;;;;;;8.05;100.00;100385.78;5048696;28;20025;-78
2023/05/10 05:05:37;;;;;;;15.50;7.68;;;;;;;8.09;100.00;100382.78;5055025;28;20037;-78
2023/05/10 05:08:02;;;;;;;16.45;6.53;;;;;;;8.17;100.00;100370.63;5054484;28;20454;-76
2023/05/10 05:10:29;;;;;;;13.75;7.53;;;;;;;8.27;100.00;100377.09;5054569;28;20028;-77
2023/05/10 05:12:55;;;;;;;11.73;7.20;;;;;;;8.40;100.00;100377.75;5054710;28;20552;-78
2023/05/10 05:15:21;;;;;;;13.18;7.07;;;;;;;8.44;100.00;100384.06;5053534;28;20128;-77
2023/05/10 05:17:47;;;;;;;14.77;6.57;;;;;;;8.53;100.00;100371.84;5054825;28;20051;-83
2023/05/10 05:20:18;;;;;;;21.67;7.65;;;;;;;8.62;100.00;100351.91;5053909;28;20458;-81
2023/05/10 05:22:44;;;;;;;13.35;6.65;;;;;;;8.73;100.00;100369.28;5052658;28;20485;-79
2023/05/10 05:25:09;;;;;;;15.60;7.68;;;;;;;8.87;100.00;100362.91;5035739;28;20102;-81
2023/05/10 05:27:35;;;;;;;21.98;7.63;;;;;;;9.01;100.00;100367.13;5052774;28;20025;-80
2023/05/10 05:30:00;;;;;;;14.95;6.53;;;;;;;9.01;100.00;100367.13;5052651;28;20697;-81
2023/05/10 05:32:27;;;;;;;11.48;6.32;;;;;;;9.09;100.00;100374.88;5035408;28;20037;-81
2023/05/10 05:34:52;;;;;;;14.20;6.25;;;;;;;9.24;100.00;100370.06;5053470;28;20049;-81
2023/05/10 05:37:19;;;;;;;14.02;6.07;;;;;;;9.30;100.00;100369.41;5052110;28;20492;-82
2023/05/10 05:39:46;;;;;;;12.20;6.40;;;;;;;9.44;100.00;100378.06;5052870;28;20140;-81
2023/05/10 05:42:26;;;;;;;12.55;6.40;;;;;;;9.47;100.00;100371.38;5070718;28;20036;-82
2023/05/10 05:44:53;;;;;;;15.48;7.20;;;;;;;9.49;100.00;100365.19;5078353;28;20058;-82
2023/05/10 05:47:20;;;;;;;20.58;7.10;;;;;;;9.46;100.00;100364.06;5061452;28;20012;-80
2023/05/10 05:49:47;;;;;;;11.80;6.75;;;;;;;9.60;100.00;100376.81;5070538;28;20049;-82
2023/05/10 05:52:12;;;;;;;9.98;5.93;;;;;;;9.60;100.00;100362.56;5055665;28;20037;-82
2023/05/10 05:54:39;;;;;;;12.05;6.22;;;;;;;9.84;99.74;100382.59;5052721;28;20099;-82
2023/05/10 05:57:05;;;;;;;15.50;6.55;;;;;;;9.94;99.59;100367.75;5053998;28;20135;-81
2023/05/10 05:59:31;;;;;;;11.95;5.65;;;;;;;10.15;98.59;100379.31;5050782;28;20072;-82
2023/05/10 06:01:58;;;;;;;15.25;7.38;;;;;;;10.25;97.46;100375.13;5053659;28;20053;-80
2023/05/10 06:04:24;;;;;;;11.18;6.18;;;;;;;10.35;96.75;100376.63;5054025;28;20462;-81
2023/05/10 06:06:49;;;;;;;10.70;6.20;;;;;;;10.39;96.36;100377.22;5052952;28;20029;-81
2023/05/10 06:09:14;;;;;;;12.40;6.15;;;;;;;10.49;95.45;100373.00;5053185;28;20471;-79
2023/05/10 06:11:40;;;;;;;13.63;6.38;;;;;;;10.63;95.51;100372.22;5035719;28;20036;-81
2023/05/10 06:14:08;;;;;;;19.63;6.88;;;;;;;10.67;94.58;100372.03;5049424;28;20033;-81
2023/05/10 06:16:34;;;;;;;13.18;6.20;;;;;;;10.85;93.89;100384.06;5053161;28;20113;-80
2023/05/10 06:19:00;;;;;;;21.17;7.43;;;;;;;10.89;93.87;100387.50;5044407;28;20033;-83
2023/05/10 06:21:27;;;;;;;30.40;8.70;;;;;;;10.95;94.01;100376.16;5057669;28;20154;-80
2023/05/10 06:23:53;;;;;;;18.95;7.38;;;;;;;11.17;94.26;100379.41;5053403;28;20036;-84
2023/05/10 06:26:19;;;;;;;19.67;6.45;;;;;;;11.39;92.48;100393.28;5053337;28;20401;-87
2023/05/10 06:28:45;;;;;;;13.82;6.05;;;;;;;11.55;90.94;100387.03;5053766;28;20447;-82
2023/05/10 06:31:12;;;;;;;9.63;5.60;;;;;;;11.83;91.34;100381.72;5061388;28;20487;-82
2023/05/10 06:33:38;;;;;;;21.17;6.40;;;;;;;13.24;87.14;100374.13;5055648;28;20448;-83
2023/05/10 06:36:05;;;;;;;10.15;5.93;;;;;;;15.36;71.56;100393.00;5054116;28;20067;-82
2023/05/10 06:38:33;;;;;;;7.22;4.75;;;;;;;17.51;57.10;100389.66;5052027;28;20155;-82
2023/05/10 06:40:58;;;;;;;8.85;4.45;;;;;;;19.56;48.01;100394.03;5050958;28;20497;-82
2023/05/10 06:43:26;;;;;;;8.60;5.28;;;;;;;20.90;41.80;100388.44;5051370;28;20033;-81
2023/05/10 06:45:52;;;;;;;10.07;5.30;;;;;;;21.99;38.64;100389.09;5053061;28;20048;-83
2023/05/10 06:48:17;;;;;;;11.45;4.78;;;;;;;23.14;36.17;100390.44;5051845;28;20052;-82
2023/05/10 06:50:44;;;;;;;8.88;5.20;;;;;;;23.88;33.88;100378.66;5053186;28;20478;-80
2023/05/10 06:53:10;;;;;;;12.70;5.45;;;;;;;24.76;33.68;100388.38;5052920;28;20031;-80
2023/05/10 06:55:36;;;;;;;9.50;4.70;;;;;;;25.20;31.51;100383.69;5052129;28;20040;-82
2023/05/10 06:58:03;;;;;;;13.93;4.82;;;;;;;25.53;30.44;100378.59;5052567;28;20025;-81
2023/05/10 07:00:30;;;;;;;17.38;5.03;;;;;;;26.02;30.16;100371.94;5052214;28;20041;-80
2023/05/10 07:02:55;;;;;;;8.75;4.72;;;;;;;26.30;29.18;100382.38;5052829;28;20021;-82
2023/05/10 07:05:22;;;;;;;7.03;4.28;;;;;;;26.75;28.30;100370.16;5052604;28;20044;-81
2023/05/10 07:07:51;;;;;;;8.68;4.18;;;;;;;26.57;28.08;100353.91;5052491;28;20025;-81
2023/05/10 07:10:17;;;;;;;8.88;4.43;;;;;;;27.72;28.41;100353.03;5052274;28;20112;-80
2023/05/10 07:12:45;;;;;;;6.40;3.70;;;;;;;27.28;27.06;100362.75;5052779;28;20044;-81
2023/05/10 07:15:11;;;;;;;11.70;4.32;;;;;;;27.15;27.50;100363.91;5052500;28;20041;-81
2023/05/10 07:17:36;;;;;;;9.18;4.35;;;;;;;27.35;27.36;100352.31;5052660;28;20021;-79
2023/05/10 07:20:03;;;;;;;14.27;4.15;;;;;;;27.35;27.28;100343.50;5050865;28;20041;-81
2023/05/10 07:22:29;;;;;;;8.00;3.72;;;;;;;26.97;27.36;100344.03;5037846;28;20111;-82
2023/05/10 07:24:55;;;;;;;6.95;3.85;;;;;;;26.98;27.11;100343.44;5055273;28;20108;-82
2023/05/10 07:27:20;;;;;;;8.93;4.53;;;;;;;26.75;27.64;100328.31;5055812;28;20107;-78
2023/05/10 07:29:46;;;;;;;17.60;5.03;;;;;;;25.83;28.19;100340.25;5056015;28;20040;-80
2023/05/10 07:32:11;;;;;;;5.80;3.50;;;;;;;26.23;28.11;100348.84;5052845;28;20114;-80
2023/05/10 07:34:37;;;;;;;8.48;3.60;;;;;;;27.35;27.92;100350.16;5055898;28;20120;-80
2023/05/10 07:37:24;;;;;;;6.13;3.42;;;;;;;27.60;26.44;100338.19;5056052;28;20028;-80
2023/05/10 07:39:50;;;;;;;6.10;3.50;;;;;;;27.28;27.06;100339.25;5055316;28;20029;-79
2023/05/10 07:42:16;;;;;;;10.55;3.47;;;;;;;27.17;27.21;100323.00;5054538;28;20048;-81
2023/05/10 07:44:43;;;;;;;5.07;3.75;;;;;;;27.42;27.43;100334.56;5055926;28;20482;-80
2023/05/10 07:47:10;;;;;;;8.50;4.05;;;;;;;27.57;27.60;100333.53;5037993;28;20031;-80
2023/05/10 07:49:37;;;;;;;4.72;3.58;;;;;;;27.73;27.02;100334.03;5053304;28;20040;-80
2023/05/10 07:52:04;;;;;;;4.07;3.58;;;;;;;28.08;25.96;100346.34;5054156;28;20037;-80
2023/05/10 07:54:30;;;;;;;6.10;3.15;;;;;;;27.90;27.20;100334.72;5055223;28;20389;-80
2023/05/10 07:56:56;;;;;;;4.68;3.53;;;;;;;28.18;26.90;100332.44;5054547;28;20037;-81
2023/05/10 07:59:21;;;;;;;4.60;3.20;;;;;;;28.25;26.94;100335.22;5054342;28;20450;-80
2023/05/10 08:01:47;;;;;;;5.75;3.65;;;;;;;28.44;25.73;100328.59;5054406;28;20049;-81
2023/05/10 08:04:15;;;;;;;3.75;3.20;;;;;;;28.56;26.13;100320.69;5054253;28;20112;-79
2023/05/10 08:06:41;;;;;;;5.88;2.88;;;;;;;28.81;25.71;100326.22;5055755;28;20031;-80
2023/05/10 08:09:06;;;;;;;8.48;3.00;;;;;;;28.24;26.79;100333.69;5053753;28;20021;-80
2023/05/10 08:11:32;;;;;;;5.43;2.85;;;;;;;27.38;27.22;100322.50;5056888;28;20096;-80
2023/05/10 08:14:01;;;;;;;11.10;3.38;;;;;;;27.80;26.73;100330.94;5061953;28;20452;-82
2023/05/10 08:16:28;;;;;;;7.80;3.20;;;;;;;28.04;27.29;100314.50;5075413;28;20043;-80
2023/05/10 08:19:01;;;;;;;4.05;3.38;;;;;;;27.64;27.30;100323.03;5074966;28;20104;-80
2023/05/10 08:21:27;;;;;;;8.63;3.70;;;;;;;27.46;27.54;100298.88;5074901;28;20025;-80
2023/05/10 08:23:53;;;;;;;6.20;3.08;;;;;;;27.18;27.48;100326.69;5075400;28;20369;-80
2023/05/10 08:26:21;;;;;;;6.95;3.55;;;;;;;26.72;28.55;100318.56;5075524;28;20020;-80
2023/05/10 08:28:47;;;;;;;5.80;3.17;;;;;;;26.60;28.46;100320.47;5074624;28;20040;-80
2023/05/10 08:31:13;;;;;;;6.38;3.00;;;;;;;26.64;28.98;100328.81;5073425;28;20033;-81
2023/05/10 08:33:38;;;;;;;7.05;2.70;;;;;;;26.47;28.61;100296.63;5074501;28;20363;-80
2023/05/10 08:36:05;;;;;;;3.15;2.50;;;;;;;26.49;29.05;100308.50;5074187;28;20373;-80
2023/05/10 08:38:32;;;;;;;4.38;2.72;;;;;;;26.56;29.37;100323.06;5075649;28;20032;-79
2023/05/10 08:41:00;;;;;;;3.72;2.78;;;;;;;26.62;28.64;100308.13;5040958;28;20082;-80
2023/05/10 08:43:28;;;;;;;4.93;2.63;;;;;;;26.64;29.51;100311.22;5074070;28;20032;-79
2023/05/10 08:46:08;;;;;;;2.35;2.15;;;;;;;26.71;29.06;100325.03;5074350;28;20074;-79
2023/05/10 08:48:34;;;;;;;6.80;2.97;;;;;;;26.54;28.77;100325.03;5074039;28;20025;-79
2023/05/10 08:51:00;;;;;;;5.18;2.50;;;;;;;26.46;29.75;100315.59;5074351;28;20183;-80
2023/05/10 08:53:42;;;;;;;4.13;2.70;;;;;;;26.16;29.94;100331.38;5074187;28;20024;-79
2023/05/10 08:56:08;;;;;;;8.52;2.63;;;;;;;26.39;29.75;100307.66;5074438;28;20020;-79
2023/05/10 08:58:33;;;;;;;6.88;3.08;;;;;;;26.32;29.78;100315.91;5075063;28;20025;-80
2023/05/10 09:01:07;;;;;;;6.43;2.90;;;;;;;26.59;29.78;100312.28;5074844;28;20090;-80
2023/05/10 09:03:33;;;;;;;3.70;3.00;;;;;;;26.58;29.48;100307.78;5074129;28;20013;-80
2023/05/10 09:05:59;;;;;;;5.40;2.70;;;;;;;26.38;29.99;100309.03;5071405;28;20016;-78
2023/05/10 09:08:25;;;;;;;3.95;2.53;;;;;;;26.67;29.98;100307.06;5054684;28;20397;-78
2023/05/10 09:10:52;;;;;;;4.25;2.53;;;;;;;26.23;30.35;100304.91;5053524;28;20044;-78
2023/05/10 09:13:18;;;;;;;13.13;4.25;;;;;;;26.07;30.89;100315.25;5054651;28;20035;-78
2023/05/10 09:15:45;;;;;;;7.40;3.50;;;;;;;25.87;30.84;100311.34;5037697;28;20029;-78
2023/05/10 09:18:15;;;;;;;8.30;3.05;;;;;;;25.81;31.07;100301.25;5055071;28;20040;-79
2023/05/10 09:20:41;;;;;;;7.78;3.47;;;;;;;25.71;31.44;100300.38;5055824;28;20462;-79
2023/05/10 09:23:06;;;;;;;7.72;3.42;;;;;;;25.67;31.42;100300.03;5054119;28;20079;-79
2023/05/10 09:25:33;;;;;;;3.40;2.90;;;;;;;25.35;32.26;100303.78;5055013;28;20033;-80
2023/05/10 09:28:00;;;;;;;8.15;3.75;;;;;;;25.20;32.76;100306.84;5055441;28;20099;-81
2023/05/10 09:30:28;;;;;;;8.73;3.53;;;;;;;24.69;32.65;100313.22;5037191;28;20540;-82
2023/05/10 09:32:56;;;;;;;4.68;3.20;;;;;;;24.51;32.88;100289.72;5054463;28;20035;-80
2023/05/10 09:35:25;;;;;;;9.02;3.42;;;;;;;24.46;33.59;100310.38;5052589;28;20040;-81
2023/05/10 09:38:03;;;;;;;7.13;3.38;;;;;;;24.22;33.73;100311.84;5053097;28;20146;-85
2023/05/10 09:40:30;;;;;;;4.10;2.85;;;;;;;23.77;34.01;100327.28;5053788;28;20055;-85
2023/05/10 09:43:06;;;;;;;5.32;2.92;;;;;;;23.63;34.34;100317.97;5057744;28;20031;-85
2023/05/10 09:45:34;;;;;;;16.33;4.40;;;;;;;23.50;35.38;100291.91;5044177;28;20032;-85
2023/05/10 09:48:02;;;;;;;10.13;3.75;;;;;;;23.24;35.59;100310.56;5076854;28;20032;-85
2023/05/10 09:50:29;;;;;;;3.70;3.20;;;;;;;23.10;36.17;100300.47;5077585;28;20093;-85
2023/05/10 09:53:00;;;;;;;7.95;3.28;;;;;;;23.02;36.21;100301.78;5060704;28;20020;-85
2023/05/10 09:55:37;;;;;;;6.63;3.85;;;;;;;22.76;36.92;100318.25;5060228;28;20041;-86
2023/05/10 09:58:09;;;;;;;4.45;2.50;;;;;;;22.84;35.90;100313.22;5056636;28;20060;-82
2023/05/10 10:00:39;;;;;;;;;;;;;;;22.49;36.20;100293.69;5055701;28;20057;-80
2023/05/10 10:03:05;;;;;;;6.18;2.90;;;;;;;22.28;37.22;100301.75;5055738;28;19916;-80
2023/05/10 10:05:35;;;;;;;5.75;3.20;;;;;;;22.20;38.06;100286.38;5054425;28;20029;-80
2023/05/10 10:08:10;;;;;;;3.10;2.33;;;;;;;22.10;38.40;100292.72;5035964;28;20435;-81
2023/05/10 10:10:38;;;;;;;3.58;2.47;;;;;;;22.03;36.63;100310.91;5036343;28;20032;-81
2023/05/10 10:13:06;;;;;;;12.25;2.65;;;;;;;21.56;37.16;100279.22;5052857;28;20032;-81
2023/05/10 10:15:34;;;;;;;5.47;2.97;;;;;;;21.52;37.97;100295.47;5052267;28;20067;-80
2023/05/10 10:18:01;;;;;;;2.97;2.20;;;;;;;21.32;38.70;100287.53;5035596;28;20417;-79
2023/05/10 10:20:27;;;;;;;3.53;2.67;;;;;;;21.21;39.58;100280.66;5035650;28;20033;-80
2023/05/10 10:22:53;;;;;;;4.50;2.88;;;;;;;21.07;40.18;100284.22;5052191;28;20052;-80
2023/05/10 10:25:28;;;;;;;17.02;3.22;;;;;;;21.02;39.75;100265.59;5053788;28;20060;-81
2023/05/10 10:27:57;;;;;;;3.92;2.47;;;;;;;21.18;39.97;100281.03;5052450;28;20028;-80
2023/05/10 10:30:46;;;;;;;16.13;4.10;;;;;;;21.15;39.97;100282.16;5053212;28;20029;-78
2023/05/10 10:33:40;;;;;;;8.00;3.72;;;;;;;20.82;39.72;100277.97;5053236;28;20071;-81
2023/05/10 10:36:07;;;;;;;7.43;2.75;;;;;;;20.52;41.04;100280.53;5052055;28;20029;-80
2023/05/10 10:38:51;;;;;;;4.18;2.63;;;;;;;20.35;39.98;100278.00;5053028;28;20444;-80
2023/05/10 10:41:33;;;;;;;7.53;2.70;;;;;;;20.17;42.15;100273.16;5052662;28;20112;-80
2023/05/10 10:44:20;;;;;;;8.45;2.97;;;;;;;20.17;43.31;100273.16;5053096;28;20029;-80
2023/05/10 10:47:08;;;;;;;7.95;3.45;;;;;;;19.95;42.72;100280.22;5053010;28;20036;-78
2023/05/10 10:50:00;;;;;;;19.13;4.20;;;;;;;20.00;42.94;100264.81;5051532;28;20150;-77
2023/05/10 10:52:41;;;;;;;10.10;3.58;;;;;;;19.95;44.28;100257.78;5053437;28;20037;-88
2023/05/10 10:55:11;;;;;;;14.80;4.18;;;;;;;19.84;43.75;100263.03;5055892;28;20498;-82
2023/05/10 10:57:44;;;;;;;5.13;3.40;;;;;;;19.69;44.97;100260.69;5056040;28;20446;-82
2023/05/10 11:00:38;;;;;;;18.50;4.25;;;;;;;19.74;44.02;100253.22;5054263;28;20040;-82
2023/05/10 11:03:13;;;;;;;15.15;4.30;;;;;;;19.61;44.33;100268.47;5054677;28;20041;-81
2023/05/10 11:06:01;;;;;;;11.98;4.07;;;;;;;19.62;44.05;100263.47;5053466;28;20021;-82
2023/05/10 11:08:31;;;;;;;5.18;3.03;;;;;;;19.62;44.14;100251.88;5050503;28;20013;-81
2023/05/10 11:11:09;;;;;;;7.85;2.70;;;;;;;19.57;46.13;100253.53;5050965;28;20033;-83
2023/05/10 11:13:48;;;;;;;6.72;2.35;;;;;;;19.50;44.83;100263.72;5051779;28;20018;-80
2023/05/10 11:16:26;;;;;;;6.00;2.90;;;;;;;19.36;44.79;100272.94;5051587;28;20032;-82
2023/05/10 11:19:01;;;;;;;12.23;2.70;;;;;;;19.24;44.33;100252.09;5051831;28;20393;-82
2023/05/10 11:21:30;;;;;;;14.52;3.30;;;;;;;19.11;45.36;100240.47;5052320;28;20029;-81
2023/05/10 11:23:57;;;;;;;8.02;2.20;;;;;;;19.14;46.55;100247.28;5046324;28;20086;-80
2023/05/10 11:26:35;;;;;;;5.80;3.10;;;;;;;19.15;46.09;100238.03;5050922;28;20048;-80
2023/05/10 11:29:01;;;;;;;4.75;3.20;;;;;;;19.22;46.65;100243.16;5052689;28;20017;-80
2023/05/10 11:31:28;;;;;;;7.93;2.80;;;;;;;19.23;45.83;100244.72;5051843;28;20029;-80
2023/05/10 11:33:56;;;;;;;9.23;3.10;;;;;;;19.15;45.32;100235.13;5053201;28;20044;-81